Terminal Aerodrome Forecast
Issued by NWS

Home | Current Version | Previous Version | Graphics & Text | Print | Product List | Glossary On
Versions: 1 2 3 4 5 6 7 8 9 10 11 12 13 14 15 16 17 18
000
FTUS43 KGRB 272344
TAFAUW
TAF
KAUW 272344Z 2800/2824 11006KT P6SM OVC009
     FM280500 VRB03KT 2SM BR BKN007
      TEMPO 2810/2813 1SM BR VV002
     FM281500 29004KT 6SM BR SCT005 BKN014
     FM281700 24005KT P6SM SCT025=

USA.gov is the U.S. government's official web portal to all federal, state and local government web resources and services.